sensor_id;sensor_type;location;lat;lon;timestamp;P1;durP1;ratioP1;P2;durP2;ratioP2
65998;SDS011;52766;56.008;37.440;2023-02-03T00:01:47;42.30;;;15.85;;
65998;SDS011;52766;56.008;37.440;2023-02-03T00:04:13;43.85;;;15.65;;
65998;SDS011;52766;56.008;37.440;2023-02-03T00:06:40;44.50;;;17.15;;
65998;SDS011;52766;56.008;37.440;2023-02-03T00:09:08;39.63;;;14.98;;
65998;SDS011;52766;56.008;37.440;2023-02-03T00:11:35;40.75;;;13.35;;
65998;SDS011;52766;56.008;37.440;2023-02-03T00:14:02;45.55;;;15.68;;
65998;SDS011;52766;56.008;37.440;2023-02-03T00:16:34;22.73;;;8.90;;
65998;SDS011;52766;56.008;37.440;2023-02-03T00:19:00;40.90;;;14.80;;
65998;SDS011;52766;56.008;37.440;2023-02-03T00:21:31;45.13;;;17.05;;
65998;SDS011;52766;56.008;37.440;2023-02-03T00:23:59;46.67;;;16.60;;
65998;SDS011;52766;56.008;37.440;2023-02-03T00:26:27;45.38;;;16.77;;
65998;SDS011;52766;56.008;37.440;2023-02-03T00:28:54;47.63;;;17.48;;
65998;SDS011;52766;56.008;37.440;2023-02-03T00:31:22;44.53;;;16.13;;
65998;SDS011;52766;56.008;37.440;2023-02-03T00:33:57;51.97;;;16.58;;
65998;SDS011;52766;56.008;37.440;2023-02-03T00:36:25;45.30;;;15.73;;
65998;SDS011;52766;56.008;37.440;2023-02-03T00:38:51;51.25;;;17.00;;
65998;SDS011;52766;56.008;37.440;2023-02-03T00:41:18;45.72;;;17.20;;
65998;SDS011;52766;56.008;37.440;2023-02-03T00:43:44;29.90;;;11.00;;
65998;SDS011;52766;56.008;37.440;2023-02-03T00:46:11;44.95;;;17.13;;
65998;SDS011;52766;56.008;37.440;2023-02-03T00:48:40;44.45;;;16.00;;
65998;SDS011;52766;56.008;37.440;2023-02-03T00:51:06;45.10;;;14.88;;
65998;SDS011;52766;56.008;37.440;2023-02-03T00:53:33;37.60;;;15.98;;
65998;SDS011;52766;56.008;37.440;2023-02-03T00:56:00;40.17;;;15.68;;
65998;SDS011;52766;56.008;37.440;2023-02-03T00:58:26;46.83;;;17.27;;
65998;SDS011;52766;56.008;37.440;2023-02-03T01:00:53;42.75;;;15.32;;
65998;SDS011;52766;56.008;37.440;2023-02-03T01:03:20;21.95;;;10.35;;
65998;SDS011;52766;56.008;37.440;2023-02-03T01:05:45;40.67;;;14.73;;
65998;SDS011;52766;56.008;37.440;2023-02-03T01:08:13;35.33;;;13.30;;
65998;SDS011;52766;56.008;37.440;2023-02-03T01:10:41;45.65;;;17.67;;
65998;SDS011;52766;56.008;37.440;2023-02-03T01:13:13;47.63;;;16.92;;
65998;SDS011;52766;56.008;37.440;2023-02-03T01:15:47;42.95;;;15.75;;
65998;SDS011;52766;56.008;37.440;2023-02-03T01:18:15;48.10;;;16.85;;
65998;SDS011;52766;56.008;37.440;2023-02-03T01:20:48;47.60;;;16.17;;
65998;SDS011;52766;56.008;37.440;2023-02-03T01:23:14;45.88;;;17.13;;
65998;SDS011;52766;56.008;37.440;2023-02-03T01:25:39;50.13;;;18.73;;
65998;SDS011;52766;56.008;37.440;2023-02-03T01:28:06;57.67;;;17.40;;
65998;SDS011;52766;56.008;37.440;2023-02-03T01:30:32;48.00;;;17.00;;
65998;SDS011;52766;56.008;37.440;2023-02-03T01:33:07;44.67;;;18.60;;
65998;SDS011;52766;56.008;37.440;2023-02-03T01:35:36;44.13;;;16.45;;
65998;SDS011;52766;56.008;37.440;2023-02-03T01:38:02;47.78;;;16.30;;
65998;SDS011;52766;56.008;37.440;2023-02-03T01:40:30;43.78;;;16.77;;
65998;SDS011;52766;56.008;37.440;2023-02-03T01:42:56;40.03;;;14.93;;
65998;SDS011;52766;56.008;37.440;2023-02-03T01:45:23;46.13;;;15.88;;
65998;SDS011;52766;56.008;37.440;2023-02-03T01:47:57;45.97;;;15.55;;
65998;SDS011;52766;56.008;37.440;2023-02-03T01:50:27;47.85;;;15.38;;
65998;SDS011;52766;56.008;37.440;2023-02-03T01:52:57;41.35;;;16.52;;
65998;SDS011;52766;56.008;37.440;2023-02-03T01:55:35;40.92;;;16.00;;
65998;SDS011;52766;56.008;37.440;2023-02-03T02:00:30;51.88;;;17.30;;
65998;SDS011;52766;56.008;37.440;2023-02-03T02:02:57;41.25;;;14.27;;
65998;SDS011;52766;56.008;37.440;2023-02-03T02:05:37;45.30;;;16.85;;
65998;SDS011;52766;56.008;37.440;2023-02-03T02:08:09;41.45;;;14.68;;
65998;SDS011;52766;56.008;37.440;2023-02-03T02:10:38;39.67;;;14.38;;
65998;SDS011;52766;56.008;37.440;2023-02-03T02:13:06;39.13;;;13.10;;
65998;SDS011;52766;56.008;37.440;2023-02-03T02:18:18;42.60;;;14.18;;
65998;SDS011;52766;56.008;37.440;2023-02-03T02:28:39;39.13;;;15.50;;
65998;SDS011;52766;56.008;37.440;2023-02-03T02:37:06;41.22;;;13.90;;
65998;SDS011;52766;56.008;37.440;2023-02-03T02:42:37;43.60;;;15.43;;
65998;SDS011;52766;56.008;37.440;2023-02-03T02:51:37;43.05;;;14.75;;
65998;SDS011;52766;56.008;37.440;2023-02-03T02:54:10;41.22;;;15.55;;
65998;SDS011;52766;56.008;37.440;2023-02-03T02:56:41;47.42;;;17.90;;
65998;SDS011;52766;56.008;37.440;2023-02-03T02:59:16;41.92;;;14.55;;
65998;SDS011;52766;56.008;37.440;2023-02-03T03:01:47;47.88;;;15.02;;
65998;SDS011;52766;56.008;37.440;2023-02-03T03:04:44;46.10;;;15.98;;
65998;SDS011;52766;56.008;37.440;2023-02-03T03:07:16;45.28;;;15.23;;
65998;SDS011;52766;56.008;37.440;2023-02-03T03:09:51;43.28;;;15.82;;
65998;SDS011;52766;56.008;37.440;2023-02-03T03:12:40;48.25;;;16.80;;
65998;SDS011;52766;56.008;37.440;2023-02-03T03:15:14;43.20;;;15.98;;
65998;SDS011;52766;56.008;37.440;2023-02-03T03:17:47;47.63;;;15.75;;
65998;SDS011;52766;56.008;37.440;2023-02-03T03:20:19;42.15;;;16.30;;
65998;SDS011;52766;56.008;37.440;2023-02-03T03:22:48;31.65;;;11.63;;
65998;SDS011;52766;56.008;37.440;2023-02-03T03:25:20;45.88;;;15.30;;
65998;SDS011;52766;56.008;37.440;2023-02-03T03:27:53;45.70;;;16.50;;
65998;SDS011;52766;56.008;37.440;2023-02-03T03:30:25;26.17;;;10.23;;
65998;SDS011;52766;56.008;37.440;2023-02-03T03:32:58;47.55;;;18.33;;
65998;SDS011;52766;56.008;37.440;2023-02-03T03:35:24;50.67;;;16.48;;
65998;SDS011;52766;56.008;37.440;2023-02-03T03:37:55;48.25;;;15.13;;
65998;SDS011;52766;56.008;37.440;2023-02-03T03:40:29;47.78;;;17.33;;
65998;SDS011;52766;56.008;37.440;2023-02-03T03:42:59;43.00;;;14.73;;
65998;SDS011;52766;56.008;37.440;2023-02-03T03:47:58;41.65;;;12.65;;
65998;SDS011;52766;56.008;37.440;2023-02-03T03:51:08;44.70;;;16.10;;
65998;SDS011;52766;56.008;37.440;2023-02-03T03:53:19;42.78;;;12.85;;
65998;SDS011;52766;56.008;37.440;2023-02-03T03:55:49;48.75;;;15.77;;
65998;SDS011;52766;56.008;37.440;2023-02-03T03:58:21;43.97;;;14.93;;
65998;SDS011;52766;56.008;37.440;2023-02-03T04:00:49;50.90;;;16.67;;
65998;SDS011;52766;56.008;37.440;2023-02-03T04:03:34;38.08;;;14.20;;
65998;SDS011;52766;56.008;37.440;2023-02-03T04:06:03;47.95;;;16.13;;
65998;SDS011;52766;56.008;37.440;2023-02-03T04:08:30;45.40;;;15.13;;
65998;SDS011;52766;56.008;37.440;2023-02-03T04:10:56;31.85;;;10.90;;
65998;SDS011;52766;56.008;37.440;2023-02-03T04:13:23;49.60;;;16.25;;
65998;SDS011;52766;56.008;37.440;2023-02-03T04:15:49;41.88;;;14.77;;
65998;SDS011;52766;56.008;37.440;2023-02-03T04:18:16;47.63;;;17.25;;
65998;SDS011;52766;56.008;37.440;2023-02-03T04:20:42;47.42;;;16.58;;
65998;SDS011;52766;56.008;37.440;2023-02-03T04:23:12;39.50;;;15.45;;
65998;SDS011;52766;56.008;37.440;2023-02-03T04:25:39;41.85;;;14.75;;
65998;SDS011;52766;56.008;37.440;2023-02-03T04:28:09;49.17;;;16.63;;
65998;SDS011;52766;56.008;37.440;2023-02-03T04:30:36;45.55;;;16.35;;
65998;SDS011;52766;56.008;37.440;2023-02-03T04:33:04;48.22;;;16.40;;
65998;SDS011;52766;56.008;37.440;2023-02-03T04:35:30;48.03;;;16.60;;
65998;SDS011;52766;56.008;37.440;2023-02-03T04:38:08;46.95;;;15.88;;
65998;SDS011;52766;56.008;37.440;2023-02-03T04:40:50;45.95;;;15.95;;
65998;SDS011;52766;56.008;37.440;2023-02-03T04:43:18;37.70;;;12.27;;
65998;SDS011;52766;56.008;37.440;2023-02-03T04:45:54;39.53;;;13.63;;
65998;SDS011;52766;56.008;37.440;2023-02-03T04:48:23;44.28;;;15.23;;
65998;SDS011;52766;56.008;37.440;2023-02-03T04:50:50;40.17;;;13.98;;
65998;SDS011;52766;56.008;37.440;2023-02-03T04:53:19;42.05;;;15.07;;
65998;SDS011;52766;56.008;37.440;2023-02-03T04:56:05;41.67;;;13.63;;
65998;SDS011;52766;56.008;37.440;2023-02-03T04:58:40;38.10;;;13.45;;
65998;SDS011;52766;56.008;37.440;2023-02-03T05:01:09;36.45;;;12.73;;
65998;SDS011;52766;56.008;37.440;2023-02-03T05:03:38;39.33;;;13.23;;
65998;SDS011;52766;56.008;37.440;2023-02-03T05:06:07;39.53;;;14.30;;
65998;SDS011;52766;56.008;37.440;2023-02-03T05:08:33;43.72;;;15.10;;
65998;SDS011;52766;56.008;37.440;2023-02-03T05:11:10;34.80;;;12.75;;
65998;SDS011;52766;56.008;37.440;2023-02-03T05:13:37;38.08;;;13.63;;
65998;SDS011;52766;56.008;37.440;2023-02-03T05:16:13;44.13;;;15.18;;
65998;SDS011;52766;56.008;37.440;2023-02-03T05:18:45;41.65;;;15.13;;
65998;SDS011;52766;56.008;37.440;2023-02-03T05:21:12;41.60;;;14.68;;
65998;SDS011;52766;56.008;37.440;2023-02-03T05:23:40;42.40;;;14.82;;
65998;SDS011;52766;56.008;37.440;2023-02-03T05:26:09;38.58;;;14.75;;
65998;SDS011;52766;56.008;37.440;2023-02-03T05:28:35;37.95;;;13.77;;
65998;SDS011;52766;56.008;37.440;2023-02-03T05:31:01;39.42;;;14.23;;
65998;SDS011;52766;56.008;37.440;2023-02-03T05:33:27;34.45;;;12.73;;
65998;SDS011;52766;56.008;37.440;2023-02-03T05:35:54;29.70;;;12.20;;
65998;SDS011;52766;56.008;37.440;2023-02-03T05:38:20;36.20;;;13.23;;
65998;SDS011;52766;56.008;37.440;2023-02-03T05:40:50;41.33;;;14.48;;
65998;SDS011;52766;56.008;37.440;2023-02-03T05:43:35;34.35;;;13.10;;
65998;SDS011;52766;56.008;37.440;2023-02-03T05:46:02;36.22;;;12.82;;
65998;SDS011;52766;56.008;37.440;2023-02-03T05:48:29;38.03;;;14.30;;
65998;SDS011;52766;56.008;37.440;2023-02-03T05:50:55;35.30;;;12.75;;
65998;SDS011;52766;56.008;37.440;2023-02-03T05:53:21;36.85;;;13.15;;
65998;SDS011;52766;56.008;37.440;2023-02-03T05:55:47;38.85;;;14.00;;
65998;SDS011;52766;56.008;37.440;2023-02-03T05:58:13;38.08;;;15.07;;
65998;SDS011;52766;56.008;37.440;2023-02-03T06:00:39;42.47;;;14.32;;
65998;SDS011;52766;56.008;37.440;2023-02-03T06:03:06;38.40;;;14.48;;
65998;SDS011;52766;56.008;37.440;2023-02-03T06:05:37;41.30;;;14.50;;
65998;SDS011;52766;56.008;37.440;2023-02-03T06:08:13;44.30;;;14.30;;
65998;SDS011;52766;56.008;37.440;2023-02-03T06:11:04;38.83;;;13.20;;
65998;SDS011;52766;56.008;37.440;2023-02-03T06:13:47;33.03;;;12.98;;
65998;SDS011;52766;56.008;37.440;2023-02-03T06:16:43;32.58;;;12.00;;
65998;SDS011;52766;56.008;37.440;2023-02-03T06:19:14;29.58;;;10.52;;
65998;SDS011;52766;56.008;37.440;2023-02-03T06:22:21;28.75;;;12.15;;
65998;SDS011;52766;56.008;37.440;2023-02-03T06:25:02;30.77;;;10.68;;
65998;SDS011;52766;56.008;37.440;2023-02-03T06:27:31;32.10;;;11.82;;
65998;SDS011;52766;56.008;37.440;2023-02-03T06:29:57;29.15;;;12.40;;
65998;SDS011;52766;56.008;37.440;2023-02-03T06:32:23;33.20;;;12.02;;
65998;SDS011;52766;56.008;37.440;2023-02-03T06:34:49;32.67;;;11.60;;
65998;SDS011;52766;56.008;37.440;2023-02-03T06:37:18;28.38;;;10.93;;
65998;SDS011;52766;56.008;37.440;2023-02-03T06:39:51;20.65;;;8.23;;
65998;SDS011;52766;56.008;37.440;2023-02-03T06:42:17;30.50;;;12.32;;
65998;SDS011;52766;56.008;37.440;2023-02-03T06:44:43;27.85;;;10.15;;
65998;SDS011;52766;56.008;37.440;2023-02-03T06:47:09;26.92;;;10.68;;
65998;SDS011;52766;56.008;37.440;2023-02-03T06:49:35;27.73;;;9.95;;
65998;SDS011;52766;56.008;37.440;2023-02-03T06:52:01;26.00;;;12.02;;
65998;SDS011;52766;56.008;37.440;2023-02-03T06:54:27;25.77;;;10.05;;
65998;SDS011;52766;56.008;37.440;2023-02-03T06:56:55;27.98;;;11.75;;
65998;SDS011;52766;56.008;37.440;2023-02-03T06:59:21;26.52;;;9.77;;
65998;SDS011;52766;56.008;37.440;2023-02-03T07:01:47;31.88;;;11.45;;
65998;SDS011;52766;56.008;37.440;2023-02-03T07:04:13;26.42;;;10.43;;
65998;SDS011;52766;56.008;37.440;2023-02-03T07:06:39;21.90;;;8.27;;
65998;SDS011;52766;56.008;37.440;2023-02-03T07:09:05;30.08;;;11.10;;
65998;SDS011;52766;56.008;37.440;2023-02-03T07:11:31;25.95;;;9.80;;
65998;SDS011;52766;56.008;37.440;2023-02-03T07:13:57;27.98;;;10.60;;
65998;SDS011;52766;56.008;37.440;2023-02-03T07:16:23;31.20;;;12.55;;
65998;SDS011;52766;56.008;37.440;2023-02-03T07:18:48;38.22;;;14.32;;
65998;SDS011;52766;56.008;37.440;2023-02-03T07:21:17;29.52;;;10.73;;
65998;SDS011;52766;56.008;37.440;2023-02-03T07:23:47;31.00;;;11.35;;
65998;SDS011;52766;56.008;37.440;2023-02-03T07:26:19;34.83;;;11.73;;
65998;SDS011;52766;56.008;37.440;2023-02-03T07:28:53;30.65;;;11.35;;
65998;SDS011;52766;56.008;37.440;2023-02-03T07:31:19;28.00;;;12.02;;
65998;SDS011;52766;56.008;37.440;2023-02-03T07:33:45;29.50;;;10.05;;
65998;SDS011;52766;56.008;37.440;2023-02-03T07:36:26;25.27;;;10.20;;
65998;SDS011;52766;56.008;37.440;2023-02-03T07:38:53;18.67;;;9.00;;
65998;SDS011;52766;56.008;37.440;2023-02-03T07:41:28;23.90;;;10.40;;
65998;SDS011;52766;56.008;37.440;2023-02-03T07:48:01;30.00;;;9.90;;
65998;SDS011;52766;56.008;37.440;2023-02-03T07:50:28;24.73;;;10.55;;
65998;SDS011;52766;56.008;37.440;2023-02-03T07:52:59;27.83;;;11.07;;
65998;SDS011;52766;56.008;37.440;2023-02-03T07:55:37;27.17;;;10.60;;
65998;SDS011;52766;56.008;37.440;2023-02-03T07:58:04;36.55;;;12.98;;
65998;SDS011;52766;56.008;37.440;2023-02-03T08:00:30;23.10;;;9.40;;
65998;SDS011;52766;56.008;37.440;2023-02-03T08:02:56;25.30;;;9.90;;
65998;SDS011;52766;56.008;37.440;2023-02-03T08:05:22;22.27;;;9.00;;
65998;SDS011;52766;56.008;37.440;2023-02-03T08:07:48;32.97;;;10.95;;
65998;SDS011;52766;56.008;37.440;2023-02-03T08:10:14;25.83;;;11.48;;
65998;SDS011;52766;56.008;37.440;2023-02-03T08:12:40;23.40;;;9.43;;
65998;SDS011;52766;56.008;37.440;2023-02-03T08:15:07;19.85;;;7.70;;
65998;SDS011;52766;56.008;37.440;2023-02-03T08:17:33;20.58;;;8.95;;
65998;SDS011;52766;56.008;37.440;2023-02-03T08:19:59;21.25;;;8.82;;
65998;SDS011;52766;56.008;37.440;2023-02-03T08:22:28;13.10;;;5.68;;
65998;SDS011;52766;56.008;37.440;2023-02-03T08:24:54;22.40;;;8.73;;
65998;SDS011;52766;56.008;37.440;2023-02-03T08:28:15;18.27;;;6.28;;
65998;SDS011;52766;56.008;37.440;2023-02-03T08:31:26;22.75;;;8.20;;
65998;SDS011;52766;56.008;37.440;2023-02-03T08:33:59;28.42;;;10.50;;
65998;SDS011;52766;56.008;37.440;2023-02-03T08:36:34;23.17;;;9.27;;
65998;SDS011;52766;56.008;37.440;2023-02-03T08:39:13;25.30;;;9.30;;
65998;SDS011;52766;56.008;37.440;2023-02-03T08:42:00;18.92;;;8.05;;
65998;SDS011;52766;56.008;37.440;2023-02-03T08:44:34;17.88;;;5.85;;
65998;SDS011;52766;56.008;37.440;2023-02-03T08:47:09;19.60;;;9.30;;
65998;SDS011;52766;56.008;37.440;2023-02-03T08:49:37;23.20;;;9.48;;
65998;SDS011;52766;56.008;37.440;2023-02-03T08:52:07;28.15;;;9.65;;
65998;SDS011;52766;56.008;37.440;2023-02-03T08:54:35;22.73;;;9.00;;
65998;SDS011;52766;56.008;37.440;2023-02-03T08:57:04;25.55;;;9.82;;
65998;SDS011;52766;56.008;37.440;2023-02-03T08:59:33;22.60;;;8.85;;
65998;SDS011;52766;56.008;37.440;2023-02-03T09:02:05;25.88;;;9.88;;
65998;SDS011;52766;56.008;37.440;2023-02-03T09:04:34;22.52;;;9.40;;
65998;SDS011;52766;56.008;37.440;2023-02-03T09:07:00;23.63;;;8.30;;
65998;SDS011;52766;56.008;37.440;2023-02-03T09:09:27;22.77;;;8.48;;
65998;SDS011;52766;56.008;37.440;2023-02-03T09:11:53;20.02;;;8.05;;
65998;SDS011;52766;56.008;37.440;2023-02-03T09:14:25;20.90;;;7.88;;
65998;SDS011;52766;56.008;37.440;2023-02-03T09:17:02;24.65;;;9.02;;
65998;SDS011;52766;56.008;37.440;2023-02-03T09:22:00;23.65;;;10.40;;
65998;SDS011;52766;56.008;37.440;2023-02-03T09:24:28;21.98;;;8.52;;
65998;SDS011;52766;56.008;37.440;2023-02-03T09:26:55;24.83;;;8.38;;
65998;SDS011;52766;56.008;37.440;2023-02-03T09:29:21;22.13;;;9.65;;
65998;SDS011;52766;56.008;37.440;2023-02-03T09:31:48;24.23;;;9.07;;
65998;SDS011;52766;56.008;37.440;2023-02-03T09:34:17;26.08;;;9.80;;
65998;SDS011;52766;56.008;37.440;2023-02-03T09:36:45;23.65;;;9.82;;
65998;SDS011;52766;56.008;37.440;2023-02-03T09:39:11;20.02;;;7.70;;
65998;SDS011;52766;56.008;37.440;2023-02-03T09:47:22;25.60;;;9.90;;
65998;SDS011;52766;56.008;37.440;2023-02-03T09:49:56;26.73;;;10.60;;
65998;SDS011;52766;56.008;37.440;2023-02-03T09:52:26;24.67;;;9.95;;
65998;SDS011;52766;56.008;37.440;2023-02-03T09:57:51;20.67;;;9.48;;
65998;SDS011;52766;56.008;37.440;2023-02-03T10:00:26;24.15;;;9.45;;
65998;SDS011;52766;56.008;37.440;2023-02-03T10:08:24;24.95;;;10.32;;
65998;SDS011;52766;56.008;37.440;2023-02-03T10:11:25;24.98;;;10.68;;
65998;SDS011;52766;56.008;37.440;2023-02-03T10:22:49;26.42;;;10.77;;
65998;SDS011;52766;56.008;37.440;2023-02-03T10:28:09;29.90;;;10.90;;
65998;SDS011;52766;56.008;37.440;2023-02-03T10:30:59;32.90;;;11.48;;
65998;SDS011;52766;56.008;37.440;2023-02-03T10:33:28;27.27;;;11.82;;
65998;SDS011;52766;56.008;37.440;2023-02-03T10:38:58;24.25;;;9.57;;
65998;SDS011;52766;56.008;37.440;2023-02-03T10:41:33;25.15;;;10.43;;
65998;SDS011;52766;56.008;37.440;2023-02-03T10:43:59;20.90;;;9.07;;
65998;SDS011;52766;56.008;37.440;2023-02-03T10:46:31;25.52;;;9.85;;
65998;SDS011;52766;56.008;37.440;2023-02-03T10:49:11;27.92;;;10.10;;
65998;SDS011;52766;56.008;37.440;2023-02-03T10:55:12;25.88;;;9.27;;
65998;SDS011;52766;56.008;37.440;2023-02-03T10:58:04;28.33;;;9.93;;
65998;SDS011;52766;56.008;37.440;2023-02-03T11:00:50;17.88;;;8.65;;
65998;SDS011;52766;56.008;37.440;2023-02-03T11:03:40;24.85;;;9.70;;
65998;SDS011;52766;56.008;37.440;2023-02-03T11:28:53;23.67;;;9.98;;
65998;SDS011;52766;56.008;37.440;2023-02-03T11:46:21;20.38;;;7.93;;
65998;SDS011;52766;56.008;37.440;2023-02-03T11:49:28;26.48;;;9.48;;
65998;SDS011;52766;56.008;37.440;2023-02-03T11:52:27;21.83;;;7.85;;
65998;SDS011;52766;56.008;37.440;2023-02-03T11:58:41;22.88;;;8.65;;
65998;SDS011;52766;56.008;37.440;2023-02-03T12:02:06;16.65;;;7.05;;
65998;SDS011;52766;56.008;37.440;2023-02-03T12:14:31;25.15;;;10.75;;
65998;SDS011;52766;56.008;37.440;2023-02-03T12:18:05;21.45;;;8.02;;
65998;SDS011;52766;56.008;37.440;2023-02-03T12:23:59;21.67;;;9.15;;
65998;SDS011;52766;56.008;37.440;2023-02-03T12:27:02;23.83;;;9.20;;
65998;SDS011;52766;56.008;37.440;2023-02-03T12:29:57;20.17;;;8.85;;
65998;SDS011;52766;56.008;37.440;2023-02-03T12:32:44;24.50;;;9.65;;
65998;SDS011;52766;56.008;37.440;2023-02-03T12:35:19;29.95;;;11.13;;
65998;SDS011;52766;56.008;37.440;2023-02-03T12:38:00;28.02;;;9.98;;
65998;SDS011;52766;56.008;37.440;2023-02-03T12:40:43;23.48;;;9.60;;
65998;SDS011;52766;56.008;37.440;2023-02-03T12:55:05;22.38;;;9.05;;
65998;SDS011;52766;56.008;37.440;2023-02-03T13:00:19;22.50;;;9.07;;
65998;SDS011;52766;56.008;37.440;2023-02-03T13:08:27;15.85;;;6.95;;
65998;SDS011;52766;56.008;37.440;2023-02-03T13:13:41;23.58;;;9.60;;
65998;SDS011;52766;56.008;37.440;2023-02-03T13:16:31;18.83;;;7.53;;
65998;SDS011;52766;56.008;37.440;2023-02-03T13:19:10;21.88;;;8.30;;
65998;SDS011;52766;56.008;37.440;2023-02-03T13:21:50;15.50;;;6.68;;
65998;SDS011;52766;56.008;37.440;2023-02-03T13:24:27;21.08;;;9.35;;
65998;SDS011;52766;56.008;37.440;2023-02-03T13:40:58;24.55;;;9.50;;
65998;SDS011;52766;56.008;37.440;2023-02-03T13:43:49;23.70;;;9.10;;
65998;SDS011;52766;56.008;37.440;2023-02-03T13:49:37;24.55;;;8.90;;
65998;SDS011;52766;56.008;37.440;2023-02-03T13:52:44;29.45;;;11.10;;
65998;SDS011;52766;56.008;37.440;2023-02-03T13:55:59;32.40;;;11.13;;
65998;SDS011;52766;56.008;37.440;2023-02-03T13:58:41;29.05;;;9.35;;
65998;SDS011;52766;56.008;37.440;2023-02-03T14:03:59;20.77;;;8.27;;
65998;SDS011;52766;56.008;37.440;2023-02-03T14:11:52;23.75;;;9.70;;
65998;SDS011;52766;56.008;37.440;2023-02-03T14:23:33;20.52;;;8.25;;
65998;SDS011;52766;56.008;37.440;2023-02-03T14:26:03;19.13;;;7.82;;
65998;SDS011;52766;56.008;37.440;2023-02-03T14:28:40;26.00;;;8.88;;
65998;SDS011;52766;56.008;37.440;2023-02-03T14:31:19;20.83;;;8.07;;
65998;SDS011;52766;56.008;37.440;2023-02-03T14:34:07;18.42;;;7.22;;
65998;SDS011;52766;56.008;37.440;2023-02-03T14:36:51;18.95;;;8.00;;
65998;SDS011;52766;56.008;37.440;2023-02-03T14:47:38;23.83;;;10.23;;
65998;SDS011;52766;56.008;37.440;2023-02-03T14:50:20;27.60;;;10.55;;
65998;SDS011;52766;56.008;37.440;2023-02-03T14:58:52;23.50;;;9.57;;
65998;SDS011;52766;56.008;37.440;2023-02-03T15:02:24;27.95;;;10.23;;
65998;SDS011;52766;56.008;37.440;2023-02-03T15:06:01;25.73;;;10.48;;
65998;SDS011;52766;56.008;37.440;2023-02-03T15:08:38;31.70;;;12.68;;
65998;SDS011;52766;56.008;37.440;2023-02-03T15:11:14;28.40;;;12.20;;
65998;SDS011;52766;56.008;37.440;2023-02-03T15:13:55;24.90;;;11.23;;
65998;SDS011;52766;56.008;37.440;2023-02-03T15:16:43;29.27;;;11.95;;
65998;SDS011;52766;56.008;37.440;2023-02-03T15:19:16;27.05;;;10.32;;
65998;SDS011;52766;56.008;37.440;2023-02-03T15:21:42;27.02;;;10.82;;
65998;SDS011;52766;56.008;37.440;2023-02-03T15:24:12;31.40;;;11.75;;
65998;SDS011;52766;56.008;37.440;2023-02-03T15:26:44;24.30;;;10.07;;
65998;SDS011;52766;56.008;37.440;2023-02-03T15:29:28;28.73;;;11.05;;
65998;SDS011;52766;56.008;37.440;2023-02-03T15:36:25;25.42;;;10.50;;
65998;SDS011;52766;56.008;37.440;2023-02-03T15:39:06;28.52;;;10.82;;
65998;SDS011;52766;56.008;37.440;2023-02-03T15:41:39;30.05;;;12.65;;
65998;SDS011;52766;56.008;37.440;2023-02-03T15:44:07;26.65;;;11.48;;
65998;SDS011;52766;56.008;37.440;2023-02-03T15:46:40;35.22;;;12.50;;
65998;SDS011;52766;56.008;37.440;2023-02-03T15:51:48;34.45;;;14.60;;
65998;SDS011;52766;56.008;37.440;2023-02-03T15:54:46;30.27;;;12.02;;
65998;SDS011;52766;56.008;37.440;2023-02-03T15:57:28;32.42;;;12.18;;
65998;SDS011;52766;56.008;37.440;2023-02-03T16:00:22;27.73;;;11.13;;
65998;SDS011;52766;56.008;37.440;2023-02-03T16:02:54;31.67;;;11.98;;
65998;SDS011;52766;56.008;37.440;2023-02-03T16:05:34;31.27;;;13.57;;
65998;SDS011;52766;56.008;37.440;2023-02-03T16:10:54;38.33;;;12.60;;
65998;SDS011;52766;56.008;37.440;2023-02-03T16:13:24;34.92;;;14.23;;
65998;SDS011;52766;56.008;37.440;2023-02-03T16:19:14;26.60;;;12.30;;
65998;SDS011;52766;56.008;37.440;2023-02-03T16:33:01;32.10;;;12.43;;
65998;SDS011;52766;56.008;37.440;2023-02-03T16:35:49;29.52;;;12.30;;
65998;SDS011;52766;56.008;37.440;2023-02-03T16:41:52;27.27;;;12.93;;
65998;SDS011;52766;56.008;37.440;2023-02-03T16:45:23;25.83;;;11.27;;
65998;SDS011;52766;56.008;37.440;2023-02-03T16:48:35;27.35;;;11.25;;
65998;SDS011;52766;56.008;37.440;2023-02-03T16:52:18;28.20;;;11.90;;
65998;SDS011;52766;56.008;37.440;2023-02-03T16:55:01;31.42;;;11.88;;
65998;SDS011;52766;56.008;37.440;2023-02-03T16:57:47;25.20;;;10.63;;
65998;SDS011;52766;56.008;37.440;2023-02-03T17:00:23;28.83;;;11.15;;
65998;SDS011;52766;56.008;37.440;2023-02-03T17:06:19;29.70;;;13.65;;
65998;SDS011;52766;56.008;37.440;2023-02-03T17:08:51;28.20;;;11.60;;
65998;SDS011;52766;56.008;37.440;2023-02-03T17:15:09;19.15;;;8.10;;
65998;SDS011;52766;56.008;37.440;2023-02-03T17:17:42;14.32;;;5.88;;
65998;SDS011;52766;56.008;37.440;2023-02-03T17:20:52;13.57;;;6.38;;
65998;SDS011;52766;56.008;37.440;2023-02-03T17:23:41;13.73;;;6.93;;
65998;SDS011;52766;56.008;37.440;2023-02-03T17:31:46;12.25;;;6.38;;
65998;SDS011;52766;56.008;37.440;2023-02-03T17:40:27;10.88;;;5.05;;
65998;SDS011;52766;56.008;37.440;2023-02-03T17:46:50;12.63;;;4.85;;
65998;SDS011;52766;56.008;37.440;2023-02-03T17:49:49;12.13;;;4.78;;
65998;SDS011;52766;56.008;37.440;2023-02-03T17:52:20;13.48;;;5.05;;
65998;SDS011;52766;56.008;37.440;2023-02-03T17:54:46;10.52;;;5.18;;
65998;SDS011;52766;56.008;37.440;2023-02-03T17:57:12;10.48;;;4.90;;
65998;SDS011;52766;56.008;37.440;2023-02-03T17:59:38;11.10;;;5.38;;
65998;SDS011;52766;56.008;37.440;2023-02-03T18:02:04;12.82;;;5.30;;
65998;SDS011;52766;56.008;37.440;2023-02-03T18:04:31;11.70;;;4.68;;
65998;SDS011;52766;56.008;37.440;2023-02-03T18:06:57;11.38;;;4.88;;
65998;SDS011;52766;56.008;37.440;2023-02-03T18:09:22;12.60;;;5.50;;
65998;SDS011;52766;56.008;37.440;2023-02-03T18:11:48;12.88;;;6.32;;
65998;SDS011;52766;56.008;37.440;2023-02-03T18:14:14;12.23;;;5.78;;
65998;SDS011;52766;56.008;37.440;2023-02-03T18:16:43;9.77;;;5.40;;
65998;SDS011;52766;56.008;37.440;2023-02-03T18:19:10;13.20;;;5.57;;
65998;SDS011;52766;56.008;37.440;2023-02-03T18:21:38;12.73;;;6.03;;
65998;SDS011;52766;56.008;37.440;2023-02-03T18:24:06;12.85;;;5.85;;
65998;SDS011;52766;56.008;37.440;2023-02-03T18:26:34;16.95;;;7.28;;
65998;SDS011;52766;56.008;37.440;2023-02-03T18:29:02;18.75;;;8.25;;
65998;SDS011;52766;56.008;37.440;2023-02-03T18:31:32;16.70;;;7.70;;
65998;SDS011;52766;56.008;37.440;2023-02-03T18:34:01;18.38;;;7.85;;
65998;SDS011;52766;56.008;37.440;2023-02-03T18:36:38;16.95;;;5.97;;
65998;SDS011;52766;56.008;37.440;2023-02-03T18:39:04;10.70;;;5.15;;
65998;SDS011;52766;56.008;37.440;2023-02-03T18:41:34;12.13;;;4.60;;
65998;SDS011;52766;56.008;37.440;2023-02-03T18:44:03;11.68;;;5.13;;
65998;SDS011;52766;56.008;37.440;2023-02-03T18:46:30;10.90;;;5.15;;
65998;SDS011;52766;56.008;37.440;2023-02-03T18:49:02;14.98;;;6.30;;
65998;SDS011;52766;56.008;37.440;2023-02-03T18:52:32;11.10;;;4.88;;
65998;SDS011;52766;56.008;37.440;2023-02-03T18:55:53;11.48;;;4.93;;
65998;SDS011;52766;56.008;37.440;2023-02-03T18:59:33;10.30;;;4.80;;
65998;SDS011;52766;56.008;37.440;2023-02-03T19:08:37;9.88;;;4.20;;